sensor_id;sensor_type;location;lat;lon;timestamp;P1;durP1;ratioP1;P2;durP2;ratioP2
20734;SDS011;10528;52.124;5.196;2024-03-02T00:00:48;3.00;;;1.50;;
20734;SDS011;10528;52.124;5.196;2024-03-02T00:03:18;8.63;;;1.50;;
20734;SDS011;10528;52.124;5.196;2024-03-02T00:05:50;2.88;;;1.30;;
20734;SDS011;10528;52.124;5.196;2024-03-02T00:08:24;3.40;;;1.40;;
20734;SDS011;10528;52.124;5.196;2024-03-02T00:10:52;2.67;;;1.10;;
20734;SDS011;10528;52.124;5.196;2024-03-02T00:13:27;2.80;;;1.50;;
20734;SDS011;10528;52.124;5.196;2024-03-02T00:15:56;2.42;;;1.20;;
20734;SDS011;10528;52.124;5.196;2024-03-02T00:20:57;2.78;;;1.35;;
20734;SDS011;10528;52.124;5.196;2024-03-02T00:23:25;3.92;;;1.08;;
20734;SDS011;10528;52.124;5.196;2024-03-02T00:25:57;2.03;;;0.70;;
20734;SDS011;10528;52.124;5.196;2024-03-02T00:28:36;2.45;;;0.52;;
20734;SDS011;10528;52.124;5.196;2024-03-02T00:31:04;1.10;;;0.52;;
20734;SDS011;10528;52.124;5.196;2024-03-02T00:33:41;0.50;;;0.40;;
20734;SDS011;10528;52.124;5.196;2024-03-02T00:36:14;1.23;;;0.40;;
20734;SDS011;10528;52.124;5.196;2024-03-02T00:38:49;0.55;;;0.30;;
20734;SDS011;10528;52.124;5.196;2024-03-02T00:41:24;0.63;;;0.25;;
20734;SDS011;10528;52.124;5.196;2024-03-02T00:44:02;0.40;;;0.30;;
20734;SDS011;10528;52.124;5.196;2024-03-02T00:46:33;0.40;;;0.35;;
20734;SDS011;10528;52.124;5.196;2024-03-02T00:49:03;0.20;;;0.20;;
20734;SDS011;10528;52.124;5.196;2024-03-02T00:51:37;0.95;;;0.30;;
20734;SDS011;10528;52.124;5.196;2024-03-02T00:54:07;1.13;;;0.70;;
20734;SDS011;10528;52.124;5.196;2024-03-02T00:56:35;0.52;;;0.30;;
20734;SDS011;10528;52.124;5.196;2024-03-02T00:59:02;0.40;;;0.30;;
20734;SDS011;10528;52.124;5.196;2024-03-02T01:01:29;0.90;;;0.30;;
20734;SDS011;10528;52.124;5.196;2024-03-02T01:03:56;0.20;;;0.20;;
20734;SDS011;10528;52.124;5.196;2024-03-02T01:06:26;1.05;;;0.43;;
20734;SDS011;10528;52.124;5.196;2024-03-02T01:08:54;0.70;;;0.30;;
20734;SDS011;10528;52.124;5.196;2024-03-02T01:11:20;0.40;;;0.30;;
20734;SDS011;10528;52.124;5.196;2024-03-02T01:13:50;1.30;;;0.60;;
20734;SDS011;10528;52.124;5.196;2024-03-02T01:16:19;1.38;;;0.40;;
20734;SDS011;10528;52.124;5.196;2024-03-02T01:18:46;0.50;;;0.40;;
20734;SDS011;10528;52.124;5.196;2024-03-02T01:21:14;2.42;;;0.93;;
20734;SDS011;10528;52.124;5.196;2024-03-02T01:23:41;0.70;;;0.30;;
20734;SDS011;10528;52.124;5.196;2024-03-02T01:26:08;0.88;;;0.35;;
20734;SDS011;10528;52.124;5.196;2024-03-02T01:28:35;0.60;;;0.50;;
20734;SDS011;10528;52.124;5.196;2024-03-02T01:31:02;2.40;;;0.60;;
20734;SDS011;10528;52.124;5.196;2024-03-02T01:33:29;0.50;;;0.40;;
20734;SDS011;10528;52.124;5.196;2024-03-02T01:35:56;1.65;;;0.40;;
20734;SDS011;10528;52.124;5.196;2024-03-02T01:38:23;0.88;;;0.40;;
20734;SDS011;10528;52.124;5.196;2024-03-02T01:40:50;0.30;;;0.30;;
20734;SDS011;10528;52.124;5.196;2024-03-02T01:43:18;0.68;;;0.32;;
20734;SDS011;10528;52.124;5.196;2024-03-02T01:45:44;0.47;;;0.30;;
20734;SDS011;10528;52.124;5.196;2024-03-02T01:48:11;1.20;;;0.52;;
20734;SDS011;10528;52.124;5.196;2024-03-02T01:50:38;0.60;;;0.40;;
20734;SDS011;10528;52.124;5.196;2024-03-02T01:53:05;2.08;;;0.50;;
20734;SDS011;10528;52.124;5.196;2024-03-02T01:55:35;0.68;;;0.50;;
20734;SDS011;10528;52.124;5.196;2024-03-02T01:58:01;1.48;;;0.40;;
20734;SDS011;10528;52.124;5.196;2024-03-02T02:00:29;0.77;;;0.47;;
20734;SDS011;10528;52.124;5.196;2024-03-02T02:02:56;1.17;;;0.50;;
20734;SDS011;10528;52.124;5.196;2024-03-02T02:05:24;1.58;;;0.57;;
20734;SDS011;10528;52.124;5.196;2024-03-02T02:07:51;2.55;;;0.50;;
20734;SDS011;10528;52.124;5.196;2024-03-02T02:10:18;0.40;;;0.40;;
20734;SDS011;10528;52.124;5.196;2024-03-02T02:12:45;0.50;;;0.40;;
20734;SDS011;10528;52.124;5.196;2024-03-02T02:15:28;1.15;;;0.57;;
20734;SDS011;10528;52.124;5.196;2024-03-02T02:17:57;0.68;;;0.40;;
20734;SDS011;10528;52.124;5.196;2024-03-02T02:20:26;0.75;;;0.40;;
20734;SDS011;10528;52.124;5.196;2024-03-02T02:25:28;0.55;;;0.50;;
20734;SDS011;10528;52.124;5.196;2024-03-02T02:27:56;0.47;;;0.40;;
20734;SDS011;10528;52.124;5.196;2024-03-02T02:30:28;1.52;;;0.60;;
20734;SDS011;10528;52.124;5.196;2024-03-02T02:32:58;0.85;;;0.50;;
20734;SDS011;10528;52.124;5.196;2024-03-02T02:35:25;1.30;;;0.45;;
20734;SDS011;10528;52.124;5.196;2024-03-02T02:37:53;0.80;;;0.40;;
20734;SDS011;10528;52.124;5.196;2024-03-02T02:40:22;0.68;;;0.50;;
20734;SDS011;10528;52.124;5.196;2024-03-02T02:42:49;0.75;;;0.50;;
20734;SDS011;10528;52.124;5.196;2024-03-02T02:45:19;1.23;;;0.70;;
20734;SDS011;10528;52.124;5.196;2024-03-02T02:47:46;1.88;;;0.60;;
20734;SDS011;10528;52.124;5.196;2024-03-02T02:50:13;0.60;;;0.60;;
20734;SDS011;10528;52.124;5.196;2024-03-02T02:52:40;0.85;;;0.60;;
20734;SDS011;10528;52.124;5.196;2024-03-02T02:55:09;0.68;;;0.50;;
20734;SDS011;10528;52.124;5.196;2024-03-02T02:57:41;0.80;;;0.60;;
20734;SDS011;10528;52.124;5.196;2024-03-02T03:00:11;1.73;;;0.60;;
20734;SDS011;10528;52.124;5.196;2024-03-02T03:02:43;0.80;;;0.55;;
20734;SDS011;10528;52.124;5.196;2024-03-02T03:05:17;0.80;;;0.52;;
20734;SDS011;10528;52.124;5.196;2024-03-02T03:07:45;0.40;;;0.40;;
20734;SDS011;10528;52.124;5.196;2024-03-02T03:10:12;1.25;;;0.60;;
20734;SDS011;10528;52.124;5.196;2024-03-02T03:12:41;0.75;;;0.50;;
20734;SDS011;10528;52.124;5.196;2024-03-02T03:15:10;1.48;;;0.60;;
20734;SDS011;10528;52.124;5.196;2024-03-02T03:17:40;0.75;;;0.40;;
20734;SDS011;10528;52.124;5.196;2024-03-02T03:20:07;1.05;;;0.50;;
20734;SDS011;10528;52.124;5.196;2024-03-02T03:22:38;1.08;;;0.50;;
20734;SDS011;10528;52.124;5.196;2024-03-02T03:25:05;0.82;;;0.50;;
20734;SDS011;10528;52.124;5.196;2024-03-02T03:27:36;1.42;;;0.60;;
20734;SDS011;10528;52.124;5.196;2024-03-02T03:30:03;1.88;;;0.60;;
20734;SDS011;10528;52.124;5.196;2024-03-02T03:32:32;3.55;;;0.73;;
20734;SDS011;10528;52.124;5.196;2024-03-02T03:34:59;0.73;;;0.45;;
20734;SDS011;10528;52.124;5.196;2024-03-02T03:37:26;0.95;;;0.55;;
20734;SDS011;10528;52.124;5.196;2024-03-02T03:40:02;0.77;;;0.40;;
20734;SDS011;10528;52.124;5.196;2024-03-02T03:42:36;0.60;;;0.38;;
20734;SDS011;10528;52.124;5.196;2024-03-02T03:45:04;1.08;;;0.43;;
20734;SDS011;10528;52.124;5.196;2024-03-02T03:47:32;0.80;;;0.40;;
20734;SDS011;10528;52.124;5.196;2024-03-02T03:49:59;1.10;;;0.40;;
20734;SDS011;10528;52.124;5.196;2024-03-02T03:52:26;1.65;;;0.40;;
20734;SDS011;10528;52.124;5.196;2024-03-02T03:54:53;0.90;;;0.40;;
20734;SDS011;10528;52.124;5.196;2024-03-02T03:57:20;0.70;;;0.40;;
20734;SDS011;10528;52.124;5.196;2024-03-02T03:59:47;1.30;;;0.50;;
20734;SDS011;10528;52.124;5.196;2024-03-02T04:02:14;1.88;;;0.50;;
20734;SDS011;10528;52.124;5.196;2024-03-02T04:04:41;1.00;;;0.40;;
20734;SDS011;10528;52.124;5.196;2024-03-02T04:07:08;1.65;;;0.40;;
20734;SDS011;10528;52.124;5.196;2024-03-02T04:09:35;1.38;;;0.50;;
20734;SDS011;10528;52.124;5.196;2024-03-02T04:12:02;0.73;;;0.40;;
20734;SDS011;10528;52.124;5.196;2024-03-02T04:14:29;1.10;;;0.50;;
20734;SDS011;10528;52.124;5.196;2024-03-02T04:16:56;0.32;;;0.32;;
20734;SDS011;10528;52.124;5.196;2024-03-02T04:19:23;0.40;;;0.40;;
20734;SDS011;10528;52.124;5.196;2024-03-02T04:21:50;0.50;;;0.40;;
20734;SDS011;10528;52.124;5.196;2024-03-02T04:24:17;0.80;;;0.40;;
20734;SDS011;10528;52.124;5.196;2024-03-02T04:26:44;0.70;;;0.43;;
20734;SDS011;10528;52.124;5.196;2024-03-02T04:29:11;1.13;;;0.50;;
20734;SDS011;10528;52.124;5.196;2024-03-02T04:31:37;0.60;;;0.40;;
20734;SDS011;10528;52.124;5.196;2024-03-02T04:34:04;1.50;;;0.50;;
20734;SDS011;10528;52.124;5.196;2024-03-02T04:36:31;1.38;;;0.73;;
20734;SDS011;10528;52.124;5.196;2024-03-02T04:38:58;0.77;;;0.40;;
20734;SDS011;10528;52.124;5.196;2024-03-02T04:41:25;1.33;;;0.40;;
20734;SDS011;10528;52.124;5.196;2024-03-02T04:43:52;0.82;;;0.50;;
20734;SDS011;10528;52.124;5.196;2024-03-02T04:46:19;1.25;;;0.52;;
20734;SDS011;10528;52.124;5.196;2024-03-02T04:48:46;0.60;;;0.40;;
20734;SDS011;10528;52.124;5.196;2024-03-02T04:51:13;0.68;;;0.47;;
20734;SDS011;10528;52.124;5.196;2024-03-02T04:53:40;1.23;;;0.40;;
20734;SDS011;10528;52.124;5.196;2024-03-02T04:56:07;1.30;;;0.55;;
20734;SDS011;10528;52.124;5.196;2024-03-02T04:58:49;0.70;;;0.50;;
20734;SDS011;10528;52.124;5.196;2024-03-02T05:01:16;1.10;;;0.50;;
20734;SDS011;10528;52.124;5.196;2024-03-02T05:03:44;1.73;;;0.68;;
20734;SDS011;10528;52.124;5.196;2024-03-02T05:06:11;1.10;;;0.55;;
20734;SDS011;10528;52.124;5.196;2024-03-02T05:08:38;0.90;;;0.60;;
20734;SDS011;10528;52.124;5.196;2024-03-02T05:11:05;1.30;;;0.50;;
20734;SDS011;10528;52.124;5.196;2024-03-02T05:13:50;0.60;;;0.40;;
20734;SDS011;10528;52.124;5.196;2024-03-02T05:16:17;2.42;;;0.60;;
20734;SDS011;10528;52.124;5.196;2024-03-02T05:18:44;1.73;;;0.50;;
20734;SDS011;10528;52.124;5.196;2024-03-02T05:21:11;1.33;;;0.45;;
20734;SDS011;10528;52.124;5.196;2024-03-02T05:23:38;3.42;;;0.63;;
20734;SDS011;10528;52.124;5.196;2024-03-02T05:26:05;0.98;;;0.50;;
20734;SDS011;10528;52.124;5.196;2024-03-02T05:28:32;1.27;;;0.50;;
20734;SDS011;10528;52.124;5.196;2024-03-02T05:30:59;1.55;;;0.50;;
20734;SDS011;10528;52.124;5.196;2024-03-02T05:33:26;1.77;;;0.45;;
20734;SDS011;10528;52.124;5.196;2024-03-02T05:35:53;0.50;;;0.43;;
20734;SDS011;10528;52.124;5.196;2024-03-02T05:38:20;1.45;;;0.65;;
20734;SDS011;10528;52.124;5.196;2024-03-02T05:40:48;1.25;;;0.60;;
20734;SDS011;10528;52.124;5.196;2024-03-02T05:43:15;3.20;;;0.40;;
20734;SDS011;10528;52.124;5.196;2024-03-02T05:45:42;2.25;;;0.85;;
20734;SDS011;10528;52.124;5.196;2024-03-02T05:48:09;1.02;;;0.55;;
20734;SDS011;10528;52.124;5.196;2024-03-02T05:50:36;0.40;;;0.35;;
20734;SDS011;10528;52.124;5.196;2024-03-02T05:53:03;1.33;;;0.47;;
20734;SDS011;10528;52.124;5.196;2024-03-02T05:55:30;1.40;;;0.40;;
20734;SDS011;10528;52.124;5.196;2024-03-02T05:57:57;2.67;;;0.60;;
20734;SDS011;10528;52.124;5.196;2024-03-02T06:00:24;0.95;;;0.43;;
20734;SDS011;10528;52.124;5.196;2024-03-02T06:02:51;1.67;;;0.70;;
20734;SDS011;10528;52.124;5.196;2024-03-02T06:05:18;3.28;;;0.90;;
20734;SDS011;10528;52.124;5.196;2024-03-02T06:07:45;2.40;;;0.70;;
20734;SDS011;10528;52.124;5.196;2024-03-02T06:10:12;1.60;;;0.65;;
20734;SDS011;10528;52.124;5.196;2024-03-02T06:12:40;2.05;;;0.57;;
20734;SDS011;10528;52.124;5.196;2024-03-02T06:15:07;0.88;;;0.52;;
20734;SDS011;10528;52.124;5.196;2024-03-02T06:17:35;1.88;;;0.60;;
20734;SDS011;10528;52.124;5.196;2024-03-02T06:20:02;0.90;;;0.50;;
20734;SDS011;10528;52.124;5.196;2024-03-02T06:22:30;1.70;;;0.50;;
20734;SDS011;10528;52.124;5.196;2024-03-02T06:24:57;0.90;;;0.45;;
20734;SDS011;10528;52.124;5.196;2024-03-02T06:27:24;2.58;;;0.63;;
20734;SDS011;10528;52.124;5.196;2024-03-02T06:29:51;2.58;;;0.68;;
20734;SDS011;10528;52.124;5.196;2024-03-02T06:32:18;2.47;;;0.50;;
20734;SDS011;10528;52.124;5.196;2024-03-02T06:34:44;1.85;;;0.50;;
20734;SDS011;10528;52.124;5.196;2024-03-02T06:37:11;3.55;;;0.60;;
20734;SDS011;10528;52.124;5.196;2024-03-02T06:39:39;0.93;;;0.43;;
20734;SDS011;10528;52.124;5.196;2024-03-02T06:42:06;1.88;;;0.68;;
20734;SDS011;10528;52.124;5.196;2024-03-02T06:44:33;1.25;;;0.50;;
20734;SDS011;10528;52.124;5.196;2024-03-02T06:47:00;2.60;;;0.40;;
20734;SDS011;10528;52.124;5.196;2024-03-02T06:49:27;1.98;;;0.50;;
20734;SDS011;10528;52.124;5.196;2024-03-02T06:51:54;1.27;;;0.65;;
20734;SDS011;10528;52.124;5.196;2024-03-02T06:54:22;2.65;;;0.50;;
20734;SDS011;10528;52.124;5.196;2024-03-02T06:56:49;1.10;;;0.52;;
20734;SDS011;10528;52.124;5.196;2024-03-02T06:59:16;3.45;;;0.93;;
20734;SDS011;10528;52.124;5.196;2024-03-02T07:01:42;2.40;;;0.80;;
20734;SDS011;10528;52.124;5.196;2024-03-02T07:04:10;2.53;;;0.50;;
20734;SDS011;10528;52.124;5.196;2024-03-02T07:06:37;1.90;;;0.52;;
20734;SDS011;10528;52.124;5.196;2024-03-02T07:09:04;1.52;;;0.50;;
20734;SDS011;10528;52.124;5.196;2024-03-02T07:11:31;1.40;;;0.50;;
20734;SDS011;10528;52.124;5.196;2024-03-02T07:13:59;2.13;;;0.68;;
20734;SDS011;10528;52.124;5.196;2024-03-02T07:16:26;1.33;;;0.50;;
20734;SDS011;10528;52.124;5.196;2024-03-02T07:18:59;1.65;;;0.52;;
20734;SDS011;10528;52.124;5.196;2024-03-02T07:21:27;2.88;;;0.55;;
20734;SDS011;10528;52.124;5.196;2024-03-02T07:23:55;2.05;;;0.60;;
20734;SDS011;10528;52.124;5.196;2024-03-02T07:26:21;1.30;;;0.47;;
20734;SDS011;10528;52.124;5.196;2024-03-02T07:28:52;1.42;;;0.50;;
20734;SDS011;10528;52.124;5.196;2024-03-02T07:31:19;4.25;;;0.68;;
20734;SDS011;10528;52.124;5.196;2024-03-02T07:33:46;3.05;;;0.80;;
20734;SDS011;10528;52.124;5.196;2024-03-02T07:36:13;1.10;;;0.57;;
20734;SDS011;10528;52.124;5.196;2024-03-02T07:38:41;2.30;;;0.43;;
20734;SDS011;10528;52.124;5.196;2024-03-02T07:41:10;1.58;;;0.40;;
20734;SDS011;10528;52.124;5.196;2024-03-02T07:43:38;4.40;;;0.80;;
20734;SDS011;10528;52.124;5.196;2024-03-02T07:46:05;4.03;;;0.70;;
20734;SDS011;10528;52.124;5.196;2024-03-02T07:48:35;1.65;;;0.60;;
20734;SDS011;10528;52.124;5.196;2024-03-02T07:51:02;4.13;;;0.55;;
20734;SDS011;10528;52.124;5.196;2024-03-02T07:53:29;2.85;;;0.70;;
20734;SDS011;10528;52.124;5.196;2024-03-02T07:55:56;1.55;;;0.50;;
20734;SDS011;10528;52.124;5.196;2024-03-02T07:58:28;1.88;;;0.57;;
20734;SDS011;10528;52.124;5.196;2024-03-02T08:00:56;2.53;;;0.55;;
20734;SDS011;10528;52.124;5.196;2024-03-02T08:03:24;2.15;;;0.50;;
20734;SDS011;10528;52.124;5.196;2024-03-02T08:05:51;3.78;;;0.60;;
20734;SDS011;10528;52.124;5.196;2024-03-02T08:08:17;1.30;;;0.47;;
20734;SDS011;10528;52.124;5.196;2024-03-02T08:10:44;1.73;;;0.65;;
20734;SDS011;10528;52.124;5.196;2024-03-02T08:13:11;2.03;;;0.50;;
20734;SDS011;10528;52.124;5.196;2024-03-02T08:15:38;1.90;;;0.50;;
20734;SDS011;10528;52.124;5.196;2024-03-02T08:18:05;2.65;;;0.88;;
20734;SDS011;10528;52.124;5.196;2024-03-02T08:20:32;2.55;;;0.55;;
20734;SDS011;10528;52.124;5.196;2024-03-02T08:22:59;2.22;;;0.68;;
20734;SDS011;10528;52.124;5.196;2024-03-02T08:25:26;3.50;;;0.63;;
20734;SDS011;10528;52.124;5.196;2024-03-02T08:27:53;2.28;;;0.52;;
20734;SDS011;10528;52.124;5.196;2024-03-02T08:30:21;3.08;;;0.70;;
20734;SDS011;10528;52.124;5.196;2024-03-02T08:32:48;2.47;;;0.60;;
20734;SDS011;10528;52.124;5.196;2024-03-02T08:35:15;3.00;;;0.57;;
20734;SDS011;10528;52.124;5.196;2024-03-02T08:37:43;3.90;;;0.60;;
20734;SDS011;10528;52.124;5.196;2024-03-02T08:40:10;1.98;;;0.60;;
20734;SDS011;10528;52.124;5.196;2024-03-02T08:42:42;2.53;;;0.77;;
20734;SDS011;10528;52.124;5.196;2024-03-02T08:45:10;4.00;;;0.60;;
20734;SDS011;10528;52.124;5.196;2024-03-02T08:47:36;4.00;;;0.70;;
20734;SDS011;10528;52.124;5.196;2024-03-02T08:50:04;1.08;;;0.52;;
20734;SDS011;10528;52.124;5.196;2024-03-02T08:52:34;3.25;;;0.70;;
20734;SDS011;10528;52.124;5.196;2024-03-02T08:55:02;3.30;;;0.80;;
20734;SDS011;10528;52.124;5.196;2024-03-02T08:57:29;2.95;;;0.52;;
20734;SDS011;10528;52.124;5.196;2024-03-02T08:59:57;2.65;;;0.63;;
20734;SDS011;10528;52.124;5.196;2024-03-02T09:02:24;1.33;;;0.50;;
20734;SDS011;10528;52.124;5.196;2024-03-02T09:04:51;1.77;;;0.55;;
20734;SDS011;10528;52.124;5.196;2024-03-02T09:07:18;2.80;;;0.57;;
20734;SDS011;10528;52.124;5.196;2024-03-02T09:09:45;3.42;;;0.70;;
20734;SDS011;10528;52.124;5.196;2024-03-02T09:12:12;2.10;;;0.63;;
20734;SDS011;10528;52.124;5.196;2024-03-02T09:14:40;3.08;;;0.60;;
20734;SDS011;10528;52.124;5.196;2024-03-02T09:17:07;3.58;;;0.80;;
20734;SDS011;10528;52.124;5.196;2024-03-02T09:19:37;1.48;;;0.45;;
20734;SDS011;10528;52.124;5.196;2024-03-02T09:22:05;4.78;;;0.85;;
20734;SDS011;10528;52.124;5.196;2024-03-02T09:24:32;2.05;;;0.55;;
20734;SDS011;10528;52.124;5.196;2024-03-02T09:26:59;3.97;;;0.70;;
20734;SDS011;10528;52.124;5.196;2024-03-02T09:29:26;5.15;;;0.90;;
20734;SDS011;10528;52.124;5.196;2024-03-02T09:31:53;6.15;;;0.80;;
20734;SDS011;10528;52.124;5.196;2024-03-02T09:34:20;5.35;;;0.98;;
20734;SDS011;10528;52.124;5.196;2024-03-02T09:36:49;3.95;;;0.70;;
20734;SDS011;10528;52.124;5.196;2024-03-02T09:39:18;5.43;;;1.60;;
20734;SDS011;10528;52.124;5.196;2024-03-02T09:41:45;4.30;;;0.82;;
20734;SDS011;10528;52.124;5.196;2024-03-02T09:44:14;3.22;;;0.73;;
20734;SDS011;10528;52.124;5.196;2024-03-02T09:46:42;4.85;;;0.82;;
20734;SDS011;10528;52.124;5.196;2024-03-02T09:49:10;5.88;;;1.10;;
20734;SDS011;10528;52.124;5.196;2024-03-02T09:51:37;3.95;;;0.73;;
20734;SDS011;10528;52.124;5.196;2024-03-02T09:54:07;3.97;;;0.93;;
20734;SDS011;10528;52.124;5.196;2024-03-02T09:56:47;4.70;;;0.80;;
20734;SDS011;10528;52.124;5.196;2024-03-02T09:59:14;4.82;;;0.90;;
20734;SDS011;10528;52.124;5.196;2024-03-02T10:01:57;4.57;;;0.90;;
20734;SDS011;10528;52.124;5.196;2024-03-02T10:04:29;7.57;;;1.02;;
20734;SDS011;10528;52.124;5.196;2024-03-02T10:07:17;7.97;;;1.13;;
20734;SDS011;10528;52.124;5.196;2024-03-02T10:09:46;5.43;;;0.85;;
20734;SDS011;10528;52.124;5.196;2024-03-02T10:12:15;7.70;;;0.80;;
20734;SDS011;10528;52.124;5.196;2024-03-02T10:14:44;4.20;;;0.70;;
20734;SDS011;10528;52.124;5.196;2024-03-02T10:17:12;5.30;;;1.08;;
20734;SDS011;10528;52.124;5.196;2024-03-02T10:19:42;7.25;;;1.02;;
20734;SDS011;10528;52.124;5.196;2024-03-02T10:22:09;8.18;;;1.73;;
20734;SDS011;10528;52.124;5.196;2024-03-02T10:24:38;2.75;;;0.63;;
20734;SDS011;10528;52.124;5.196;2024-03-02T10:27:17;4.53;;;0.88;;
20734;SDS011;10528;52.124;5.196;2024-03-02T10:29:53;3.65;;;0.98;;
20734;SDS011;10528;52.124;5.196;2024-03-02T10:32:22;7.90;;;1.08;;
20734;SDS011;10528;52.124;5.196;2024-03-02T10:34:49;5.00;;;0.82;;
20734;SDS011;10528;52.124;5.196;2024-03-02T10:37:16;2.63;;;0.88;;
20734;SDS011;10528;52.124;5.196;2024-03-02T10:39:46;4.22;;;0.93;;
20734;SDS011;10528;52.124;5.196;2024-03-02T10:42:13;3.17;;;0.88;;
20734;SDS011;10528;52.124;5.196;2024-03-02T10:44:41;3.35;;;0.77;;
20734;SDS011;10528;52.124;5.196;2024-03-02T10:47:09;3.88;;;0.73;;
20734;SDS011;10528;52.124;5.196;2024-03-02T10:49:41;2.72;;;0.90;;
20734;SDS011;10528;52.124;5.196;2024-03-02T10:52:10;3.83;;;0.88;;
20734;SDS011;10528;52.124;5.196;2024-03-02T10:54:37;3.47;;;0.98;;
20734;SDS011;10528;52.124;5.196;2024-03-02T10:57:07;4.20;;;0.90;;
20734;SDS011;10528;52.124;5.196;2024-03-02T10:59:37;3.35;;;0.68;;
20734;SDS011;10528;52.124;5.196;2024-03-02T11:02:17;8.05;;;1.08;;
20734;SDS011;10528;52.124;5.196;2024-03-02T11:04:48;4.78;;;0.80;;
20734;SDS011;10528;52.124;5.196;2024-03-02T11:07:20;3.53;;;0.98;;
20734;SDS011;10528;52.124;5.196;2024-03-02T11:09:59;4.53;;;1.30;;
20734;SDS011;10528;52.124;5.196;2024-03-02T11:15:10;4.40;;;0.77;;
20734;SDS011;10528;52.124;5.196;2024-03-02T11:17:43;3.60;;;0.77;;
20734;SDS011;10528;52.124;5.196;2024-03-02T11:20:12;4.05;;;0.70;;
20734;SDS011;10528;52.124;5.196;2024-03-02T11:22:41;2.50;;;0.70;;
20734;SDS011;10528;52.124;5.196;2024-03-02T11:25:22;2.55;;;0.70;;
20734;SDS011;10528;52.124;5.196;2024-03-02T11:33:02;2.95;;;0.55;;
20734;SDS011;10528;52.124;5.196;2024-03-02T11:35:35;2.92;;;0.93;;
20734;SDS011;10528;52.124;5.196;2024-03-02T11:38:13;3.22;;;0.73;;
20734;SDS011;10528;52.124;5.196;2024-03-02T11:40:40;2.80;;;0.60;;
20734;SDS011;10528;52.124;5.196;2024-03-02T11:43:08;4.50;;;0.80;;
20734;SDS011;10528;52.124;5.196;2024-03-02T11:45:37;2.42;;;0.63;;
20734;SDS011;10528;52.124;5.196;2024-03-02T11:48:10;3.92;;;1.13;;
20734;SDS011;10528;52.124;5.196;2024-03-02T11:50:42;4.28;;;0.95;;
20734;SDS011;10528;52.124;5.196;2024-03-02T11:53:15;3.53;;;0.70;;
20734;SDS011;10528;52.124;5.196;2024-03-02T11:55:43;3.58;;;0.93;;
20734;SDS011;10528;52.124;5.196;2024-03-02T11:58:15;3.30;;;0.50;;
20734;SDS011;10528;52.124;5.196;2024-03-02T12:00:53;1.95;;;0.70;;
20734;SDS011;10528;52.124;5.196;2024-03-02T12:03:23;2.00;;;0.52;;
20734;SDS011;10528;52.124;5.196;2024-03-02T12:05:53;2.97;;;0.90;;
20734;SDS011;10528;52.124;5.196;2024-03-02T12:08:21;4.20;;;1.00;;
20734;SDS011;10528;52.124;5.196;2024-03-02T12:10:58;3.20;;;0.63;;
20734;SDS011;10528;52.124;5.196;2024-03-02T12:13:28;3.85;;;0.90;;
20734;SDS011;10528;52.124;5.196;2024-03-02T12:15:56;3.22;;;0.80;;
20734;SDS011;10528;52.124;5.196;2024-03-02T12:18:23;2.20;;;0.60;;
20734;SDS011;10528;52.124;5.196;2024-03-02T12:20:51;2.53;;;0.80;;
20734;SDS011;10528;52.124;5.196;2024-03-02T12:23:19;4.43;;;0.65;;
20734;SDS011;10528;52.124;5.196;2024-03-02T12:25:46;3.65;;;0.60;;
20734;SDS011;10528;52.124;5.196;2024-03-02T12:28:13;4.03;;;0.60;;
20734;SDS011;10528;52.124;5.196;2024-03-02T12:30:41;3.63;;;0.70;;
20734;SDS011;10528;52.124;5.196;2024-03-02T12:33:08;4.63;;;0.90;;
20734;SDS011;10528;52.124;5.196;2024-03-02T12:35:38;3.38;;;0.85;;
20734;SDS011;10528;52.124;5.196;2024-03-02T12:38:05;4.70;;;0.80;;
20734;SDS011;10528;52.124;5.196;2024-03-02T12:40:32;2.58;;;0.73;;
20734;SDS011;10528;52.124;5.196;2024-03-02T12:42:59;2.30;;;0.77;;
20734;SDS011;10528;52.124;5.196;2024-03-02T12:45:27;1.95;;;0.68;;
20734;SDS011;10528;52.124;5.196;2024-03-02T12:47:54;2.88;;;0.80;;
20734;SDS011;10528;52.124;5.196;2024-03-02T12:50:21;4.35;;;0.82;;
20734;SDS011;10528;52.124;5.196;2024-03-02T12:52:51;4.30;;;1.08;;
20734;SDS011;10528;52.124;5.196;2024-03-02T12:55:23;3.88;;;0.77;;
20734;SDS011;10528;52.124;5.196;2024-03-02T12:57:51;5.47;;;0.77;;
20734;SDS011;10528;52.124;5.196;2024-03-02T13:00:20;7.22;;;1.20;;
20734;SDS011;10528;52.124;5.196;2024-03-02T13:02:49;6.25;;;0.70;;
20734;SDS011;10528;52.124;5.196;2024-03-02T13:05:18;5.45;;;0.60;;
20734;SDS011;10528;52.124;5.196;2024-03-02T13:07:47;1.65;;;0.50;;
20734;SDS011;10528;52.124;5.196;2024-03-02T13:10:15;2.50;;;0.70;;
20734;SDS011;10528;52.124;5.196;2024-03-02T13:12:44;3.20;;;0.60;;
20734;SDS011;10528;52.124;5.196;2024-03-02T13:15:11;3.20;;;0.60;;
20734;SDS011;10528;52.124;5.196;2024-03-02T13:17:44;3.53;;;1.02;;
20734;SDS011;10528;52.124;5.196;2024-03-02T13:20:14;3.15;;;0.82;;
20734;SDS011;10528;52.124;5.196;2024-03-02T13:22:43;3.22;;;0.73;;
20734;SDS011;10528;52.124;5.196;2024-03-02T13:25:10;2.50;;;0.80;;
20734;SDS011;10528;52.124;5.196;2024-03-02T13:27:38;2.42;;;0.60;;
20734;SDS011;10528;52.124;5.196;2024-03-02T13:30:06;3.95;;;1.08;;
20734;SDS011;10528;52.124;5.196;2024-03-02T13:32:35;3.65;;;0.70;;
20734;SDS011;10528;52.124;5.196;2024-03-02T13:35:03;3.72;;;1.00;;
20734;SDS011;10528;52.124;5.196;2024-03-02T13:37:30;4.40;;;0.80;;
20734;SDS011;10528;52.124;5.196;2024-03-02T13:39:57;3.75;;;0.68;;
20734;SDS011;10528;52.124;5.196;2024-03-02T13:42:24;4.43;;;0.77;;
20734;SDS011;10528;52.124;5.196;2024-03-02T13:44:51;5.18;;;0.80;;
20734;SDS011;10528;52.124;5.196;2024-03-02T13:47:18;3.55;;;0.70;;
20734;SDS011;10528;52.124;5.196;2024-03-02T13:49:47;3.30;;;0.85;;
20734;SDS011;10528;52.124;5.196;2024-03-02T13:52:21;2.20;;;0.60;;
20734;SDS011;10528;52.124;5.196;2024-03-02T13:54:48;2.63;;;0.80;;
20734;SDS011;10528;52.124;5.196;2024-03-02T13:57:15;3.20;;;0.88;;
20734;SDS011;10528;52.124;5.196;2024-03-02T13:59:49;3.13;;;0.60;;
20734;SDS011;10528;52.124;5.196;2024-03-02T14:02:16;4.47;;;0.95;;
20734;SDS011;10528;52.124;5.196;2024-03-02T14:04:43;3.45;;;0.90;;
20734;SDS011;10528;52.124;5.196;2024-03-02T14:07:10;3.10;;;0.90;;
20734;SDS011;10528;52.124;5.196;2024-03-02T14:09:38;2.80;;;0.70;;
20734;SDS011;10528;52.124;5.196;2024-03-02T14:12:05;4.53;;;0.90;;
20734;SDS011;10528;52.124;5.196;2024-03-02T14:14:33;2.35;;;0.65;;
20734;SDS011;10528;52.124;5.196;2024-03-02T14:17:00;3.05;;;0.73;;
20734;SDS011;10528;52.124;5.196;2024-03-02T14:19:30;4.03;;;1.10;;
20734;SDS011;10528;52.124;5.196;2024-03-02T14:21:58;2.08;;;0.70;;
20734;SDS011;10528;52.124;5.196;2024-03-02T14:24:25;3.97;;;0.90;;
20734;SDS011;10528;52.124;5.196;2024-03-02T14:26:54;4.10;;;1.08;;
20734;SDS011;10528;52.124;5.196;2024-03-02T14:29:35;3.17;;;1.13;;
20734;SDS011;10528;52.124;5.196;2024-03-02T14:32:04;3.58;;;1.10;;
20734;SDS011;10528;52.124;5.196;2024-03-02T14:34:32;3.70;;;1.05;;
20734;SDS011;10528;52.124;5.196;2024-03-02T14:37:02;4.07;;;1.02;;
20734;SDS011;10528;52.124;5.196;2024-03-02T14:39:29;3.65;;;1.00;;
20734;SDS011;10528;52.124;5.196;2024-03-02T14:42:01;2.30;;;0.80;;
20734;SDS011;10528;52.124;5.196;2024-03-02T14:44:28;3.17;;;0.85;;
20734;SDS011;10528;52.124;5.196;2024-03-02T14:46:55;4.78;;;0.90;;
20734;SDS011;10528;52.124;5.196;2024-03-02T14:49:25;4.57;;;0.82;;
20734;SDS011;10528;52.124;5.196;2024-03-02T14:51:54;5.55;;;0.98;;
20734;SDS011;10528;52.124;5.196;2024-03-02T14:54:22;4.63;;;1.05;;
20734;SDS011;10528;52.124;5.196;2024-03-02T14:56:49;4.63;;;0.98;;
20734;SDS011;10528;52.124;5.196;2024-03-02T14:59:18;5.78;;;1.30;;
20734;SDS011;10528;52.124;5.196;2024-03-02T15:01:45;2.20;;;0.80;;
20734;SDS011;10528;52.124;5.196;2024-03-02T15:04:13;3.28;;;0.90;;
20734;SDS011;10528;52.124;5.196;2024-03-02T15:06:41;4.45;;;1.08;;
20734;SDS011;10528;52.124;5.196;2024-03-02T15:09:08;2.78;;;0.80;;